Time;durP1;ratioP1;P1;durP2;ratioP2;P2;SDS_P1;SDS_P2;PMS_P1;PMS_P2;Temp;Humidity;BMP_temperature;BMP_pressure;BME280_temperature;BME280_humidity;BME280_pressure;Samples;Min_cycle;Max_cycle;Signal;HPM_P1;HPM_P2
2022/01/12 00:01:00;;;;;;;1518.78;932.13;;;3.50;99.90;;;;;;6125489;23;20152;-83
2022/01/12 00:03:26;;;;;;;1422.40;906.03;;;3.50;99.90;;;;;;6123691;23;20315;-83
2022/01/12 00:05:52;;;;;;;1528.13;945.22;;;3.50;99.90;;;;;;6123766;23;20028;-82
2022/01/12 00:08:17;;;;;;;1445.60;907.58;;;3.50;99.90;;;;;;6123718;23;20101;-83
2022/01/12 00:10:44;;;;;;;1424.45;894.33;;;3.50;99.90;;;;;;6149692;23;20045;-84
2022/01/12 00:13:10;;;;;;;1381.43;877.40;;;3.50;99.90;;;;;;6124188;23;20505;-84
2022/01/12 00:15:35;;;;;;;1477.97;928.05;;;3.50;99.90;;;;;;6122983;23;20049;-83
2022/01/12 00:18:01;;;;;;;1484.53;923.45;;;3.50;99.90;;;;;;6123718;23;20025;-83
2022/01/12 00:20:27;;;;;;;1381.57;838.00;;;3.50;99.90;;;;;;6120597;23;20026;-83
2022/01/12 00:22:53;;;;;;;1475.10;935.20;;;3.50;99.90;;;;;;6121094;23;20021;-83
2022/01/12 00:33:16;;;;;;;1468.70;927.55;;;3.50;99.90;;;;;;6145864;23;20314;-83
2022/01/12 00:35:47;;;;;;;1388.20;883.88;;;3.60;99.90;;;;;;6122912;23;20057;-84
2022/01/12 00:38:14;;;;;;;1395.30;899.72;;;3.60;99.90;;;;;;6122502;23;20374;-84
2022/01/12 00:40:52;;;;;;;1410.93;876.83;;;3.60;99.90;;;;;;6124011;23;20370;-84
2022/01/12 00:43:19;;;;;;;1460.22;907.90;;;3.60;99.90;;;;;;6123168;23;20025;-85
2022/01/12 00:45:46;;;;;;;1445.80;915.15;;;3.60;99.90;;;;;;6123999;23;20466;-84
2022/01/12 00:48:13;;;;;;;1415.00;906.20;;;3.60;99.90;;;;;;6121359;23;20450;-84
2022/01/12 00:50:40;;;;;;;1375.68;850.15;;;3.60;99.90;;;;;;6120867;23;20461;-83
2022/01/12 00:53:06;;;;;;;1470.45;892.28;;;3.60;99.90;;;;;;6123417;23;20059;-84
2022/01/12 00:55:32;;;;;;;1437.93;885.45;;;3.60;99.90;;;;;;6123432;23;20030;-83
2022/01/12 00:57:59;;;;;;;1463.47;903.38;;;3.60;99.90;;;;;;6122168;23;20327;-83
2022/01/12 01:00:26;;;;;;;1406.03;886.45;;;4.40;99.90;;;;;;6122873;23;20407;-83
2022/01/12 01:02:53;;;;;;;1396.45;879.38;;;3.60;99.90;;;;;;6121016;23;20474;-83
2022/01/12 01:05:22;;;;;;;1524.47;956.75;;;3.60;99.90;;;;;;6122218;23;20104;-84
2022/01/12 01:07:49;;;;;;;1453.32;913.70;;;3.70;99.90;;;;;;6122562;23;20123;-84
2022/01/12 01:10:26;;;;;;;1413.28;908.25;;;3.70;99.90;;;;;;6122027;23;20065;-84
2022/01/12 01:12:51;;;;;;;1509.43;951.20;;;3.60;99.90;;;;;;6123570;23;20017;-84
2022/01/12 01:15:25;;;;;;;1436.25;941.53;;;3.70;99.90;;;;;;6123615;23;20010;-84
2022/01/12 01:26:03;;;;;;;1495.00;953.28;;;3.70;99.90;;;;;;6143005;23;20037;-83
2022/01/12 01:28:28;;;;;;;1450.85;947.10;;;3.70;99.90;;;;;;6123121;23;20072;-84
2022/01/12 01:30:54;;;;;;;1371.03;902.28;;;3.70;99.90;;;;;;6123273;23;20043;-83
2022/01/12 01:33:21;;;;;;;1449.68;948.00;;;3.70;99.90;;;;;;6121680;23;20028;-84
2022/01/12 01:35:54;;;;;;;1400.35;902.17;;;3.70;99.90;;;;;;6121429;23;20458;-83
2022/01/12 01:38:19;;;;;;;1455.55;944.08;;;3.70;99.90;;;;;;6122563;23;20014;-83
2022/01/12 01:40:46;;;;;;;1432.72;903.90;;;3.70;99.90;;;;;;6123001;23;20025;-82
2022/01/12 01:43:25;;;;;;;1392.15;898.13;;;3.70;99.90;;;;;;6121226;23;20064;-83
2022/01/12 01:54:03;;;;;;;1352.97;859.17;;;3.80;99.90;;;;;;6148695;23;20100;-83
2022/01/12 01:59:17;;;;;;;1445.85;926.88;;;3.80;99.90;;;;;;6147971;23;20372;-83
2022/01/12 02:01:43;;;;;;;1369.15;886.95;;;4.40;99.90;;;;;;6123133;23;20025;-82
2022/01/12 02:04:09;;;;;;;1499.75;990.67;;;3.80;99.90;;;;;;6117980;23;20028;-82
2022/01/12 02:06:36;;;;;;;1460.13;948.28;;;3.80;99.90;;;;;;6118338;23;20021;-82
2022/01/12 02:09:11;;;;;;;1484.90;948.28;;;3.10;99.90;;;;;;6116316;23;20017;-83
2022/01/12 02:11:36;;;;;;;1448.20;954.85;;;3.40;99.90;;;;;;6122408;23;20376;-82
2022/01/12 02:14:02;;;;;;;1462.75;922.10;;;3.90;99.90;;;;;;6121606;23;20024;-83
2022/01/12 02:16:36;;;;;;;1475.43;937.35;;;3.90;99.90;;;;;;6121811;23;20017;-83
2022/01/12 02:19:09;;;;;;;1380.15;863.22;;;4.20;99.90;;;;;;6121528;23;20021;-83
2022/01/12 02:35:56;;;;;;;1368.45;877.78;;;3.90;99.90;;;;;;6144457;23;20108;-83
2022/01/12 02:41:06;;;;;;;1340.72;865.15;;;4.00;99.90;;;;;;6146611;23;20095;-83
2022/01/12 02:53:51;;;;;;;1481.05;988.35;;;4.00;99.90;;;;;;6147599;23;20109;-83
2022/01/12 02:56:24;;;;;;;1470.82;999.90;;;4.00;99.90;;;;;;6123737;23;20128;-83
2022/01/12 02:58:51;;;;;;;1424.30;955.05;;;4.00;99.90;;;;;;6123990;23;20013;-83
2022/01/12 03:04:00;;;;;;;1351.13;904.20;;;4.00;99.90;;;;;;6148244;23;20419;-82
2022/01/12 03:06:32;;;;;;;1344.63;901.08;;;3.90;99.90;;;;;;6123817;23;20053;-83
2022/01/12 03:08:59;;;;;;;1331.68;913.30;;;3.90;99.90;;;;;;6123979;23;20358;-83
2022/01/12 03:11:26;;;;;;;1390.28;949.58;;;3.80;99.90;;;;;;6124079;23;20364;-84
2022/01/12 03:13:52;;;;;;;1443.53;989.75;;;3.80;99.90;;;;;;6124204;23;20476;-83
2022/01/12 03:16:22;;;;;;;1427.45;980.40;;;3.80;99.90;;;;;;6149231;23;20094;-83
2022/01/12 03:18:51;;;;;;;1416.65;943.80;;;3.70;99.90;;;;;;6123490;23;20045;-83
2022/01/12 03:21:20;;;;;;;1359.43;901.15;;;3.60;99.90;;;;;;6124979;23;20027;-83
2022/01/12 03:23:46;;;;;;;1438.55;934.58;;;3.60;99.90;;;;;;6124554;23;20084;-84
2022/01/12 03:26:12;;;;;;;1366.78;881.83;;;3.50;99.90;;;;;;6123508;23;20028;-84
2022/01/12 03:28:40;;;;;;;1449.95;940.03;;;3.50;99.90;;;;;;6123496;23;20070;-84
2022/01/12 03:31:26;;;;;;;1461.35;932.30;;;4.00;99.90;;;;;;6121199;23;20028;-83
2022/01/12 03:33:58;;;;;;;1370.05;878.33;;;3.40;99.90;;;;;;6122707;23;20108;-83
2022/01/12 03:36:53;;;;;;;1379.57;879.83;;;3.30;99.90;;;;;;6121289;23;20101;-84
2022/01/12 03:39:14;;;;;;;1430.78;896.00;;;3.20;99.90;;;;;;6121286;23;20458;-83
2022/01/12 03:41:43;;;;;;;1463.30;913.72;;;3.20;99.90;;;;;;6122350;23;20018;-82
2022/01/12 03:44:11;;;;;;;1401.00;856.10;;;3.10;99.90;;;;;;6123964;23;20045;-83
2022/01/12 03:46:39;;;;;;;1400.53;824.05;;;3.00;99.90;;;;;;6126191;23;20021;-83
2022/01/12 03:49:05;;;;;;;1425.60;787.33;;;3.00;99.90;;;;;;6124012;23;20874;-83
2022/01/12 03:51:31;;;;;;;1440.05;850.13;;;2.90;99.90;;;;;;6125068;23;20018;-83
2022/01/12 03:53:56;;;;;;;1411.75;796.10;;;2.90;99.90;;;;;;6122516;23;20020;-83
2022/01/12 03:56:22;;;;;;;1466.40;832.92;;;2.30;99.90;;;;;;6122450;23;20295;-83
2022/01/12 03:58:48;;;;;;;1444.18;812.58;;;2.80;99.90;;;;;;6123255;23;20021;-83
2022/01/12 04:01:13;;;;;;;1426.22;816.03;;;2.80;99.90;;;;;;6122386;23;20025;-83
2022/01/12 04:03:43;;;;;;;1476.40;802.15;;;2.80;99.90;;;;;;6122350;23;20315;-83
2022/01/12 04:08:54;;;;;;;1493.68;777.42;;;2.80;99.90;;;;;;6148183;23;20026;-83
2022/01/12 04:11:19;;;;;;;1474.88;782.17;;;2.80;99.90;;;;;;6123922;23;20013;-83
2022/01/12 04:13:48;;;;;;;1436.78;781.72;;;2.80;99.90;;;;;;6123776;23;20500;-83
2022/01/12 04:16:13;;;;;;;1437.05;787.50;;;2.80;99.90;;;;;;6124963;23;20021;-83
2022/01/12 04:18:40;;;;;;;1445.55;813.42;;;2.80;99.90;;;;;;6124310;23;20084;-83
2022/01/12 04:21:08;;;;;;;1437.47;801.22;;;2.80;99.90;;;;;;6123343;23;20041;-84
2022/01/12 04:23:35;;;;;;;1447.90;845.85;;;2.80;99.90;;;;;;6125166;23;20045;-83
2022/01/12 04:26:08;;;;;;;1456.10;784.38;;;2.80;99.90;;;;;;6123968;23;20090;-84
2022/01/12 04:28:35;;;;;;;1469.53;773.33;;;2.70;99.90;;;;;;6121231;23;20083;-83
2022/01/12 04:31:00;;;;;;;1469.03;758.15;;;2.70;99.90;;;;;;6125123;23;20515;-83
2022/01/12 04:33:26;;;;;;;1461.43;769.97;;;2.70;99.90;;;;;;6122938;23;20024;-83
2022/01/12 04:35:54;;;;;;;1457.10;798.03;;;2.70;99.90;;;;;;6121654;23;20040;-83
2022/01/12 04:38:23;;;;;;;1466.70;780.08;;;2.60;99.90;;;;;;6122051;23;20028;-83
2022/01/12 04:40:49;;;;;;;1489.55;861.10;;;2.60;99.90;;;;;;6123224;23;20021;-83
2022/01/12 04:43:17;;;;;;;1455.65;746.55;;;2.60;99.90;;;;;;6121948;23;20075;-83
2022/01/12 04:50:54;;;;;;;1485.43;773.35;;;2.70;99.90;;;;;;6143765;23;20347;-83
2022/01/12 04:53:21;;;;;;;1474.50;746.45;;;2.70;99.90;;;;;;6123801;23;20021;-83
2022/01/12 04:55:48;;;;;;;1503.47;767.40;;;2.60;99.90;;;;;;6123428;23;20010;-84
2022/01/12 04:58:14;;;;;;;1492.57;759.85;;;2.60;99.90;;;;;;6124206;23;20105;-83
2022/01/12 05:00:41;;;;;;;1466.22;765.85;;;2.60;99.90;;;;;;6122726;23;20059;-83
2022/01/12 05:08:50;;;;;;;1504.13;733.22;;;2.40;99.90;;;;;;6147058;23;20187;-83
2022/01/12 05:14:00;;;;;;;1534.00;745.00;;;2.30;99.90;;;;;;6147314;23;20057;-82
2022/01/12 05:16:26;;;;;;;1514.55;711.47;;;2.20;99.90;;;;;;6121903;23;20017;-83
2022/01/12 05:18:54;;;;;;;1550.18;718.10;;;2.20;99.90;;;;;;6121987;23;20028;-83
2022/01/12 05:21:22;;;;;;;1555.47;708.55;;;2.20;99.90;;;;;;6120049;23;20512;-83
2022/01/12 05:23:48;;;;;;;1556.60;704.40;;;2.10;99.90;;;;;;6120963;23;20410;-83
2022/01/12 05:26:14;;;;;;;1562.20;706.63;;;2.10;99.90;;;;;;6124066;23;20335;-83
2022/01/12 05:28:40;;;;;;;1576.82;692.50;;;2.00;99.90;;;;;;6123590;23;20017;-83
2022/01/12 05:31:07;;;;;;;1564.10;676.53;;;2.00;99.90;;;;;;6122915;23;20036;-83
2022/01/12 05:33:34;;;;;;;1570.47;680.83;;;1.90;99.90;;;;;;6121699;23;20104;-83
2022/01/12 05:36:03;;;;;;;1567.15;668.53;;;1.90;99.90;;;;;;6119411;23;20101;-83
2022/01/12 05:38:29;;;;;;;1575.93;685.25;;;1.80;99.90;;;;;;6122267;23;20087;-82
2022/01/12 05:40:58;;;;;;;1582.28;687.50;;;1.80;99.90;;;;;;6121144;23;20029;-82
2022/01/12 05:43:28;;;;;;;1582.32;689.03;;;1.80;99.90;;;;;;6121474;23;20024;-84
2022/01/12 05:45:56;;;;;;;1580.32;671.75;;;1.70;99.90;;;;;;6146303;23;20057;-83
2022/01/12 05:50:49;;;;;;;1584.88;697.50;;;1.90;99.90;;;;;;6143135;23;20529;-85
2022/01/12 05:53:17;;;;;;;1569.00;681.75;;;1.70;99.90;;;;;;6123007;23;20116;-84
2022/01/12 05:55:43;;;;;;;1573.30;676.15;;;1.60;99.90;;;;;;6121646;23;20036;-83
2022/01/12 05:58:09;;;;;;;1569.82;679.33;;;1.70;99.90;;;;;;6121585;23;20108;-84
2022/01/12 06:00:35;;;;;;;1576.30;684.33;;;1.70;99.90;;;;;;6120975;23;20021;-83
2022/01/12 06:03:01;;;;;;;1573.13;682.92;;;1.60;99.90;;;;;;6121099;23;20104;-84
2022/01/12 06:05:28;;;;;;;1576.47;670.88;;;1.60;99.90;;;;;;6121069;23;20021;-85
2022/01/12 06:07:54;;;;;;;1584.45;682.78;;;1.60;99.90;;;;;;6121320;23;20017;-84
2022/01/12 06:10:22;;;;;;;1560.47;669.90;;;1.60;99.90;;;;;;6121930;23;20347;-84
2022/01/12 06:12:48;;;;;;;1579.85;685.05;;;1.50;99.90;;;;;;6120240;23;20461;-84
2022/01/12 06:15:14;;;;;;;1562.32;674.53;;;1.50;99.90;;;;;;6123260;23;20037;-84
2022/01/12 06:17:40;;;;;;;1550.15;664.78;;;1.40;99.90;;;;;;6123900;23;20017;-84
2022/01/12 06:20:08;;;;;;;1575.85;687.17;;;1.40;99.90;;;;;;6096526;23;20017;-84
2022/01/12 06:22:35;;;;;;;1555.45;669.63;;;1.40;99.90;;;;;;6123407;23;20080;-84
2022/01/12 06:25:03;;;;;;;1561.53;678.17;;;1.40;99.90;;;;;;6147299;23;20017;-84
2022/01/12 06:27:30;;;;;;;1565.63;666.05;;;1.40;99.90;;;;;;6120250;23;20034;-84
2022/01/12 06:31:10;;;;;;;1580.40;670.30;;;1.40;99.90;;;;;;6118830;23;20022;-84
2022/01/12 06:33:00;;;;;;;1572.47;669.90;;;1.40;99.90;;;;;;6126497;23;20022;-84
2022/01/12 06:35:26;;;;;;;1570.72;663.88;;;1.80;99.90;;;;;;6126085;23;20072;-84
2022/01/12 06:37:53;;;;;;;1574.68;670.13;;;1.30;99.90;;;;;;6125745;23;20014;-85
2022/01/12 06:40:20;;;;;;;1572.53;673.53;;;1.40;99.90;;;;;;6125933;23;20017;-84
2022/01/12 06:42:46;;;;;;;1583.20;669.40;;;1.40;99.90;;;;;;6123300;23;20493;-85
2022/01/12 06:45:12;;;;;;;1577.85;677.30;;;1.40;99.90;;;;;;6128421;23;20476;-84
2022/01/12 06:47:38;;;;;;;1583.25;667.53;;;1.40;99.90;;;;;;6151076;23;20026;-83
2022/01/12 06:50:06;;;;;;;1568.60;676.92;;;1.40;99.90;;;;;;6124547;23;20022;-84
2022/01/12 06:52:31;;;;;;;1566.63;656.70;;;1.50;99.90;;;;;;6125534;23;20284;-84
2022/01/12 06:54:57;;;;;;;1589.57;667.55;;;1.50;99.90;;;;;;6125558;23;20017;-84
2022/01/12 06:57:23;;;;;;;1553.50;646.15;;;1.50;99.90;;;;;;6126356;23;20029;-83
2022/01/12 06:59:48;;;;;;;1575.40;678.17;;;1.50;99.90;;;;;;6125326;23;20366;-84
2022/01/12 07:02:14;;;;;;;1570.97;677.67;;;1.50;99.90;;;;;;6124491;23;20025;-85
2022/01/12 07:04:43;;;;;;;1562.30;666.13;;;1.50;99.90;;;;;;6124977;23;20298;-85
2022/01/12 07:07:09;;;;;;;1564.35;671.25;;;1.60;99.90;;;;;;6125997;23;20010;-84
2022/01/12 07:09:34;;;;;;;1566.60;672.25;;;1.60;99.90;;;;;;6123889;23;20343;-85
2022/01/12 07:12:00;;;;;;;1542.32;649.50;;;1.60;99.90;;;;;;6123786;23;20032;-87
2022/01/12 07:14:26;;;;;;;1567.53;676.58;;;1.60;99.90;;;;;;6125782;23;20040;-85
2022/01/12 07:16:51;;;;;;;1570.13;672.30;;;1.60;99.90;;;;;;6125000;23;20398;-85
2022/01/12 07:19:17;;;;;;;1558.43;660.65;;;1.60;99.90;;;;;;6126459;23;20100;-84
2022/01/12 07:21:42;;;;;;;1562.25;676.45;;;1.60;99.90;;;;;;6123265;23;20104;-84
2022/01/12 07:24:08;;;;;;;1573.43;687.53;;;1.60;99.90;;;;;;6117930;23;20017;-84
2022/01/12 07:26:34;;;;;;;1569.82;681.70;;;1.60;99.90;;;;;;6124675;23;20457;-84
2022/01/12 07:29:00;;;;;;;1569.75;675.63;;;1.60;99.90;;;;;;6123629;23;20013;-84
2022/01/12 07:31:26;;;;;;;1568.38;678.75;;;1.60;99.90;;;;;;6125637;23;20018;-85
2022/01/12 07:33:51;;;;;;;1557.93;670.08;;;1.60;99.90;;;;;;6125241;23;20023;-84
2022/01/12 07:36:17;;;;;;;1557.25;673.33;;;1.60;99.90;;;;;;6124173;23;20528;-84
2022/01/12 07:38:43;;;;;;;1543.07;662.40;;;1.60;99.90;;;;;;6125463;23;20029;-84
2022/01/12 07:41:09;;;;;;;1566.70;680.88;;;1.60;99.90;;;;;;6123629;23;20052;-84
2022/01/12 07:43:34;;;;;;;1557.40;669.22;;;1.60;99.90;;;;;;6123172;23;20026;-86
2022/01/12 07:46:00;;;;;;;1564.15;685.40;;;1.60;99.90;;;;;;6124819;23;20017;-85
2022/01/12 07:48:26;;;;;;;1563.38;678.05;;;1.60;99.90;;;;;;6121382;23;20020;-86
2022/01/12 07:50:52;;;;;;;1561.78;706.28;;;1.60;99.90;;;;;;6122759;23;20104;-85
2022/01/12 07:53:17;;;;;;;1545.03;713.17;;;2.00;99.90;;;;;;6121585;23;20029;-86
2022/01/12 07:55:46;;;;;;;1563.28;712.35;;;1.60;99.90;;;;;;6122899;23;20018;-86
2022/01/12 07:58:15;;;;;;;1547.32;686.65;;;1.50;99.90;;;;;;6124291;23;20103;-85
2022/01/12 08:00:41;;;;;;;1566.88;694.72;;;1.50;99.90;;;;;;6124129;23;20021;-86
2022/01/12 08:03:06;;;;;;;1546.18;688.15;;;1.00;99.90;;;;;;6123833;23;20009;-83
2022/01/12 08:05:32;;;;;;;1555.97;697.38;;;1.50;99.90;;;;;;6123494;23;20022;-84
2022/01/12 08:07:59;;;;;;;1547.03;691.92;;;1.50;99.90;;;;;;6123445;23;20044;-85
2022/01/12 08:10:25;;;;;;;1553.28;706.38;;;1.50;99.90;;;;;;6123076;23;20021;-85
2022/01/12 08:12:50;;;;;;;1549.45;702.58;;;1.40;99.90;;;;;;6122637;23;20022;-85
2022/01/12 08:15:16;;;;;;;1561.57;692.20;;;1.50;99.90;;;;;;6121476;23;20414;-84
2022/01/12 08:17:42;;;;;;;1543.53;695.85;;;1.80;99.90;;;;;;6123277;23;20017;-84
2022/01/12 08:20:15;;;;;;;1555.95;709.30;;;1.30;99.90;;;;;;6120836;23;20024;-84
2022/01/12 08:22:41;;;;;;;1537.28;681.40;;;1.50;99.90;;;;;;6123798;23;20124;-84
2022/01/12 08:25:15;;;;;;;1548.43;693.78;;;3.30;99.90;;;;;;6123633;23;20017;-84
2022/01/12 08:27:41;;;;;;;1565.22;673.65;;;1.60;99.90;;;;;;6123404;23;20335;-84
2022/01/12 08:30:16;;;;;;;1561.32;682.60;;;1.60;99.90;;;;;;6124188;23;20014;-84
2022/01/12 08:32:41;;;;;;;1567.57;693.85;;;1.60;99.90;;;;;;6124165;23;20010;-84
2022/01/12 08:35:07;;;;;;;1555.10;685.28;;;1.40;99.90;;;;;;6118698;23;20044;-83
2022/01/12 08:37:33;;;;;;;1563.85;703.65;;;1.60;99.90;;;;;;6122291;23;20497;-83
2022/01/12 08:40:06;;;;;;;1566.95;690.72;;;1.60;99.90;;;;;;6122915;23;20136;-84
2022/01/12 08:42:34;;;;;;;1557.88;703.63;;;1.60;99.90;;;;;;6122523;23;20092;-83
2022/01/12 08:45:02;;;;;;;1555.72;685.78;;;1.70;99.90;;;;;;6118629;23;20631;-84
2022/01/12 08:47:28;;;;;;;1549.63;698.55;;;1.70;99.90;;;;;;6124191;23;20018;-84
2022/01/12 08:49:54;;;;;;;1537.80;684.70;;;2.00;99.90;;;;;;6123741;23;20022;-84
2022/01/12 08:52:21;;;;;;;1560.97;703.05;;;1.70;99.90;;;;;;6123481;23;20028;-84
2022/01/12 08:54:46;;;;;;;1540.68;703.03;;;1.70;99.90;;;;;;6121725;23;20017;-83
2022/01/12 08:57:21;;;;;;;1545.00;697.83;;;1.50;99.90;;;;;;6148930;23;20549;-83
2022/01/12 08:59:47;;;;;;;1547.00;691.80;;;3.50;99.90;;;;;;6121511;23;20025;-83
2022/01/12 09:02:14;;;;;;;1542.05;704.92;;;4.30;99.90;;;;;;6123616;23;20491;-83
2022/01/12 09:04:42;;;;;;;1545.78;700.28;;;1.60;99.90;;;;;;6121674;23;20017;-84
2022/01/12 09:07:08;;;;;;;1535.95;688.20;;;2.40;99.90;;;;;;6121249;23;20029;-83
2022/01/12 09:09:35;;;;;;;1558.10;714.63;;;1.80;99.90;;;;;;6122631;23;20018;-83
2022/01/12 09:12:03;;;;;;;1569.65;712.42;;;2.30;99.90;;;;;;6122052;23;20513;-83
2022/01/12 09:14:29;;;;;;;1552.47;717.17;;;1.90;99.90;;;;;;6121860;23;20024;-84
2022/01/12 09:17:13;;;;;;;1556.97;721.90;;;1.90;99.90;;;;;;6122310;23;20450;-83
2022/01/12 09:19:41;;;;;;;1548.55;703.78;;;3.40;99.90;;;;;;6122942;23;20346;-83
2022/01/12 09:22:07;;;;;;;1531.05;685.15;;;1.90;99.90;;;;;;6122634;23;20009;-83
2022/01/12 09:24:33;;;;;;;1549.68;720.90;;;1.80;99.90;;;;;;6119793;23;20025;-83
2022/01/12 09:26:58;;;;;;;1523.78;718.15;;;1.90;99.90;;;;;;6121000;23;20390;-84
2022/01/12 09:29:24;;;;;;;1515.45;721.15;;;3.10;99.90;;;;;;6123716;23;20502;-84
2022/01/12 09:31:50;;;;;;;1546.60;717.58;;;2.40;99.90;;;;;;6122898;23;20481;-84
2022/01/12 09:34:16;;;;;;;1538.95;763.40;;;1.80;99.90;;;;;;6123066;23;20168;-83
2022/01/12 09:36:42;;;;;;;1519.25;735.70;;;4.00;99.90;;;;;;6123890;23;20017;-83
2022/01/12 09:39:09;;;;;;;1496.00;757.53;;;3.00;99.90;;;;;;6120166;23;20426;-84
2022/01/12 09:41:35;;;;;;;1528.95;754.28;;;2.40;99.90;;;;;;6120975;23;20109;-84
2022/01/12 09:44:02;;;;;;;1485.20;740.33;;;2.30;99.90;;;;;;6120856;23;20066;-83
2022/01/12 09:46:27;;;;;;;1527.97;746.28;;;2.90;99.90;;;;;;6124107;23;20018;-84
2022/01/12 09:48:55;;;;;;;1530.07;757.08;;;2.40;99.90;;;;;;6122866;23;20319;-83
2022/01/12 09:51:22;;;;;;;1481.93;723.63;;;2.30;99.90;;;;;;6121297;23;20076;-84
2022/01/12 09:53:49;;;;;;;1497.40;749.60;;;2.50;99.90;;;;;;6123198;23;20450;-84
2022/01/12 09:56:32;;;;;;;1497.65;755.92;;;2.50;99.90;;;;;;6122014;23;20079;-84
2022/01/12 09:59:06;;;;;;;1485.50;765.88;;;2.60;99.90;;;;;;6146562;23;20136;-84
2022/01/12 10:01:34;;;;;;;1470.82;764.88;;;2.60;99.90;;;;;;6123866;23;20056;-84
2022/01/12 10:04:12;;;;;;;1480.82;784.70;;;2.00;99.90;;;;;;6122910;23;20028;-84
2022/01/12 10:07:14;;;;;;;1466.43;797.58;;;3.60;99.90;;;;;;6123477;23;20024;-84
2022/01/12 10:09:44;;;;;;;;;;;2.70;99.90;;;;;;5977083;23;20070;-85
2022/01/12 10:12:18;;;;;;;1462.45;785.03;;;2.80;99.90;;;;;;6096698;23;19916;-84
2022/01/12 10:14:51;;;;;;;1462.70;808.45;;;2.80;99.90;;;;;;6123065;23;20148;-85
2022/01/12 10:17:29;;;;;;;1425.05;788.80;;;2.90;99.90;;;;;;6123585;23;20048;-85
2022/01/12 10:20:18;;;;;;;1423.55;792.47;;;2.90;99.90;;;;;;6121756;23;20143;-85
2022/01/12 10:22:56;;;;;;;1419.57;846.45;;;3.00;99.90;;;;;;6122744;23;20037;-84
2022/01/12 10:25:22;;;;;;;1372.20;854.30;;;3.10;99.90;;;;;;6121587;23;20221;-84
2022/01/12 10:27:48;;;;;;;1409.20;848.85;;;3.10;99.90;;;;;;6119776;23;20024;-84
2022/01/12 10:30:23;;;;;;;1383.38;889.22;;;3.20;99.90;;;;;;6121911;23;20010;-84
2022/01/12 10:33:02;;;;;;;1340.55;839.53;;;3.20;99.90;;;;;;6122295;23;20092;-84
2022/01/12 10:35:29;;;;;;;1403.85;927.22;;;3.30;99.90;;;;;;6123023;23;20492;-84
2022/01/12 10:38:17;;;;;;;1386.57;919.70;;;3.40;99.90;;;;;;6120821;23;20018;-83
2022/01/12 10:40:52;;;;;;;1518.75;968.20;;;3.50;99.90;;;;;;6120885;23;20028;-84
2022/01/12 10:43:25;;;;;;;1342.15;876.33;;;3.60;99.90;;;;;;6122126;23;20020;-84
2022/01/12 10:45:51;;;;;;;1336.75;902.40;;;3.60;99.90;;;;;;6120867;23;20021;-84
2022/01/12 10:48:16;;;;;;;1534.22;996.28;;;3.70;99.90;;;;;;6120927;23;20049;-84
2022/01/12 10:50:56;;;;;;;1397.55;944.20;;;3.80;99.90;;;;;;6120781;23;20060;-84
2022/01/12 10:53:35;;;;;;;1381.63;966.78;;;3.80;99.90;;;;;;6123465;23;20017;-83
2022/01/12 10:56:04;;;;;;;1473.18;990.10;;;3.90;99.90;;;;;;6148719;23;20327;-83
2022/01/12 10:58:31;;;;;;;1464.07;997.03;;;3.90;99.90;;;;;;6120078;23;20032;-83
2022/01/12 11:00:57;;;;;;;1328.95;916.13;;;4.00;99.90;;;;;;6120790;23;20085;-83
2022/01/12 11:03:23;;;;;;;1420.03;959.53;;;4.10;99.90;;;;;;6122942;23;20426;-83
2022/01/12 11:05:50;;;;;;;1569.30;999.90;;;4.20;99.90;;;;;;6122705;23;20100;-84
2022/01/12 11:08:27;;;;;;;1503.35;999.38;;;4.30;99.90;;;;;;6120261;23;20089;-84
2022/01/12 11:10:57;;;;;;;1400.50;956.53;;;3.70;99.90;;;;;;6121903;23;20018;-83
2022/01/12 11:13:24;;;;;;;1421.57;995.63;;;4.50;99.90;;;;;;6120625;23;20029;-84
2022/01/12 11:15:54;;;;;;;1468.20;999.90;;;4.70;99.90;;;;;;6148013;23;20018;-83
2022/01/12 11:18:21;;;;;;;1501.95;999.90;;;4.80;99.90;;;;;;6150485;23;20029;-83
2022/01/12 11:20:50;;;;;;;1470.90;999.90;;;4.90;99.90;;;;;;6125196;23;20021;-83
2022/01/12 11:23:20;;;;;;;1543.85;999.90;;;4.60;99.90;;;;;;6124158;23;20342;-84
2022/01/12 11:25:58;;;;;;;1429.47;998.22;;;4.90;99.90;;;;;;6122895;23;20069;-84
2022/01/12 11:28:35;;;;;;;1410.03;999.90;;;3.80;99.90;;;;;;6124211;23;20099;-84
2022/01/12 11:31:18;;;;;;;1436.95;998.83;;;5.40;99.90;;;;;;6123852;23;20021;-84
2022/01/12 11:33:47;;;;;;;1408.43;967.95;;;4.80;99.90;;;;;;6124731;23;20112;-84
2022/01/12 11:36:25;;;;;;;1557.28;999.90;;;4.80;99.90;;;;;;6123444;23;20449;-84
2022/01/12 11:39:04;;;;;;;1389.43;994.58;;;4.80;99.90;;;;;;6124369;23;20220;-84
2022/01/12 11:41:42;;;;;;;1455.30;999.90;;;4.80;99.90;;;;;;6124600;23;20061;-84
2022/01/12 11:44:28;;;;;;;1434.57;998.97;;;4.80;99.90;;;;;;6122588;23;20013;-83
2022/01/12 11:47:00;;;;;;;1379.13;989.95;;;4.80;99.90;;;;;;6123831;23;20018;-84
2022/01/12 11:49:44;;;;;;;1389.00;989.97;;;4.70;99.90;;;;;;6125227;23;20009;-84
2022/01/12 11:52:30;;;;;;;1476.88;999.90;;;5.40;99.90;;;;;;6124956;23;20342;-83
2022/01/12 11:55:24;;;;;;;1509.30;999.90;;;5.20;99.90;;;;;;6126672;23;20298;-84
2022/01/12 11:57:54;;;;;;;1455.88;999.90;;;6.20;99.90;;;;;;6118276;23;20060;-83
2022/01/12 12:01:10;;;;;;;1439.88;999.90;;;5.50;99.90;;;;;;6127381;23;20088;-84
2022/01/12 12:06:41;;;;;;;1445.25;999.90;;;5.40;99.90;;;;;;6155575;23;20017;-83
2022/01/12 12:09:10;;;;;;;1473.55;999.90;;;6.00;99.90;;;;;;6125976;23;20025;-84
2022/01/12 12:11:51;;;;;;;1367.00;976.83;;;4.90;99.90;;;;;;6124738;23;20033;-85
2022/01/12 12:14:25;;;;;;;1526.07;999.90;;;4.80;99.90;;;;;;6124414;23;20049;-84
2022/01/12 12:16:51;;;;;;;1517.78;999.90;;;6.30;99.90;;;;;;6124662;23;20017;-84
2022/01/12 12:19:18;;;;;;;1356.88;969.28;;;5.10;99.90;;;;;;6120388;23;20075;-83
2022/01/12 12:21:48;;;;;;;1395.22;992.88;;;5.40;99.90;;;;;;6123119;23;20024;-85
2022/01/12 12:24:15;;;;;;;1442.22;999.90;;;5.00;99.90;;;;;;6121731;23;20028;-84
2022/01/12 12:27:02;;;;;;;1407.85;999.90;;;5.10;99.90;;;;;;6123013;23;20076;-84
2022/01/12 12:29:28;;;;;;;1403.57;999.90;;;5.10;99.90;;;;;;6123414;23;20454;-85
2022/01/12 12:32:03;;;;;;;1457.28;999.90;;;5.10;99.90;;;;;;6123867;23;20021;-84
2022/01/12 12:34:40;;;;;;;1449.70;999.90;;;6.00;99.90;;;;;;6121421;23;20093;-85
2022/01/12 12:37:08;;;;;;;1453.72;999.90;;;5.10;99.90;;;;;;6124530;23;20017;-84
2022/01/12 12:39:40;;;;;;;1448.63;999.90;;;5.90;99.90;;;;;;6147936;23;20359;-84
2022/01/12 12:42:13;;;;;;;;;;;5.20;99.90;;;;;;6123520;23;20454;-85
2022/01/12 12:44:42;;;;;;;1369.15;981.28;;;5.20;99.90;;;;;;6124516;23;19913;-85
2022/01/12 12:47:09;;;;;;;1449.82;999.90;;;6.60;99.90;;;;;;6124166;23;20027;-85
2022/01/12 12:49:56;;;;;;;1451.85;999.90;;;5.30;99.90;;;;;;6124913;23;20192;-85
2022/01/12 12:52:32;;;;;;;1386.10;993.00;;;6.10;99.90;;;;;;6125232;23;20497;-84
2022/01/12 12:55:14;;;;;;;1433.70;999.90;;;5.40;99.90;;;;;;6124228;23;20060;-85
2022/01/12 12:57:57;;;;;;;1423.32;999.90;;;5.40;99.90;;;;;;6124092;23;20014;-84
2022/01/12 13:00:26;;;;;;;1370.68;979.08;;;5.40;99.90;;;;;;6149094;23;20026;-83
2022/01/12 13:02:54;;;;;;;1407.15;999.90;;;5.50;99.90;;;;;;6124066;23;20053;-85
2022/01/12 13:05:23;;;;;;;1412.15;999.90;;;5.40;99.90;;;;;;6126097;23;20255;-84
2022/01/12 13:07:49;;;;;;;1435.22;999.90;;;5.50;99.90;;;;;;6121915;23;20017;-83
2022/01/12 13:10:20;;;;;;;1456.85;999.90;;;6.80;99.90;;;;;;6123307;23;20350;-84
2022/01/12 13:12:51;;;;;;;1400.45;999.90;;;6.60;99.90;;;;;;6123151;23;20021;-83
2022/01/12 13:15:37;;;;;;;1510.10;999.90;;;6.50;99.90;;;;;;6121537;23;20021;-83
2022/01/12 13:18:24;;;;;;;1524.50;999.90;;;5.60;99.90;;;;;;6124540;23;20565;-84
2022/01/12 13:21:09;;;;;;;1442.38;999.90;;;5.60;99.90;;;;;;6124206;23;20025;-83
2022/01/12 13:23:43;;;;;;;1425.70;999.90;;;5.60;99.90;;;;;;6148722;23;20029;-84
2022/01/12 13:26:16;;;;;;;1399.70;998.65;;;5.70;99.90;;;;;;6122440;23;20017;-83
2022/01/12 13:28:45;;;;;;;1420.85;999.90;;;7.40;99.90;;;;;;6120695;23;20037;-83
2022/01/12 13:31:21;;;;;;;1438.85;999.90;;;5.70;99.90;;;;;;6122655;23;20017;-81
2022/01/12 13:34:30;;;;;;;1383.88;998.17;;;5.60;99.90;;;;;;6121593;23;20021;-82
2022/01/12 13:36:56;;;;;;;1409.07;999.90;;;5.50;99.90;;;;;;6116023;23;20398;-84
2022/01/12 13:39:33;;;;;;;1383.93;989.58;;;5.60;99.90;;;;;;6121306;23;20092;-84